sensor_id;sensor_type;location;lat;lon;timestamp;temperature;humidity
20297;DHT22;10307;40.100;18.336;2022-12-18T00:01:27;13.40;99.90
20297;DHT22;10307;40.100;18.336;2022-12-18T00:03:55;13.40;99.90
20297;DHT22;10307;40.100;18.336;2022-12-18T00:06:22;13.40;99.90
20297;DHT22;10307;40.100;18.336;2022-12-18T00:08:50;13.40;99.90
20297;DHT22;10307;40.100;18.336;2022-12-18T00:11:20;13.40;99.90
20297;DHT22;10307;40.100;18.336;2022-12-18T00:13:47;13.40;99.90
20297;DHT22;10307;40.100;18.336;2022-12-18T00:16:18;13.40;99.90
20297;DHT22;10307;40.100;18.336;2022-12-18T00:18:49;13.30;99.90
20297;DHT22;10307;40.100;18.336;2022-12-18T00:21:16;13.30;99.90
20297;DHT22;10307;40.100;18.336;2022-12-18T00:23:44;13.30;99.90
20297;DHT22;10307;40.100;18.336;2022-12-18T00:26:13;13.30;99.90
20297;DHT22;10307;40.100;18.336;2022-12-18T00:28:39;13.30;99.90
20297;DHT22;10307;40.100;18.336;2022-12-18T00:31:08;13.20;99.90
20297;DHT22;10307;40.100;18.336;2022-12-18T00:33:36;13.20;99.90
20297;DHT22;10307;40.100;18.336;2022-12-18T00:38:34;13.20;99.90
20297;DHT22;10307;40.100;18.336;2022-12-18T00:41:01;13.20;99.90
20297;DHT22;10307;40.100;18.336;2022-12-18T00:43:28;13.30;99.90
20297;DHT22;10307;40.100;18.336;2022-12-18T00:45:54;13.30;99.90
20297;DHT22;10307;40.100;18.336;2022-12-18T00:48:20;13.20;99.90
20297;DHT22;10307;40.100;18.336;2022-12-18T00:50:48;13.20;99.90
20297;DHT22;10307;40.100;18.336;2022-12-18T00:53:15;13.20;99.90
20297;DHT22;10307;40.100;18.336;2022-12-18T00:55:42;13.20;99.90
20297;DHT22;10307;40.100;18.336;2022-12-18T00:58:10;13.20;99.90
20297;DHT22;10307;40.100;18.336;2022-12-18T01:00:37;13.10;99.90
20297;DHT22;10307;40.100;18.336;2022-12-18T01:03:04;13.00;99.90
20297;DHT22;10307;40.100;18.336;2022-12-18T01:05:31;13.00;99.90
20297;DHT22;10307;40.100;18.336;2022-12-18T01:07:58;12.90;99.90
20297;DHT22;10307;40.100;18.336;2022-12-18T01:10:25;12.90;99.90
20297;DHT22;10307;40.100;18.336;2022-12-18T01:12:52;12.90;99.90
20297;DHT22;10307;40.100;18.336;2022-12-18T01:15:18;12.90;99.90
20297;DHT22;10307;40.100;18.336;2022-12-18T01:17:45;12.90;99.90
20297;DHT22;10307;40.100;18.336;2022-12-18T01:20:12;12.90;99.90
20297;DHT22;10307;40.100;18.336;2022-12-18T01:22:39;12.90;99.90
20297;DHT22;10307;40.100;18.336;2022-12-18T01:25:07;12.90;99.90
20297;DHT22;10307;40.100;18.336;2022-12-18T01:27:34;12.90;99.90
20297;DHT22;10307;40.100;18.336;2022-12-18T01:30:04;12.90;99.90
20297;DHT22;10307;40.100;18.336;2022-12-18T01:32:31;12.90;99.90
20297;DHT22;10307;40.100;18.336;2022-12-18T01:34:57;13.00;99.90
20297;DHT22;10307;40.100;18.336;2022-12-18T01:37:24;13.00;99.90
20297;DHT22;10307;40.100;18.336;2022-12-18T01:39:52;13.00;99.90
20297;DHT22;10307;40.100;18.336;2022-12-18T01:42:20;13.00;99.90
20297;DHT22;10307;40.100;18.336;2022-12-18T01:47:49;13.00;99.90
20297;DHT22;10307;40.100;18.336;2022-12-18T01:50:32;13.00;99.90
20297;DHT22;10307;40.100;18.336;2022-12-18T01:53:02;12.90;99.90
20297;DHT22;10307;40.100;18.336;2022-12-18T01:55:35;12.90;99.90
20297;DHT22;10307;40.100;18.336;2022-12-18T01:58:04;12.90;99.90
20297;DHT22;10307;40.100;18.336;2022-12-18T02:03:08;12.80;99.90
20297;DHT22;10307;40.100;18.336;2022-12-18T02:08:26;12.80;99.90
20297;DHT22;10307;40.100;18.336;2022-12-18T02:11:23;12.70;99.90
20297;DHT22;10307;40.100;18.336;2022-12-18T02:16:42;12.70;99.90
20297;DHT22;10307;40.100;18.336;2022-12-18T02:19:39;12.60;99.90
20297;DHT22;10307;40.100;18.336;2022-12-18T02:22:19;12.70;99.90
20297;DHT22;10307;40.100;18.336;2022-12-18T02:25:03;12.70;99.90
20297;DHT22;10307;40.100;18.336;2022-12-18T02:27:32;12.60;99.90
20297;DHT22;10307;40.100;18.336;2022-12-18T02:30:01;12.70;99.90
20297;DHT22;10307;40.100;18.336;2022-12-18T02:32:37;12.60;99.90
20297;DHT22;10307;40.100;18.336;2022-12-18T02:35:09;12.60;99.90
20297;DHT22;10307;40.100;18.336;2022-12-18T02:37:39;12.50;99.90
20297;DHT22;10307;40.100;18.336;2022-12-18T02:40:07;12.50;99.90
20297;DHT22;10307;40.100;18.336;2022-12-18T02:42:36;12.50;99.90
20297;DHT22;10307;40.100;18.336;2022-12-18T02:45:05;12.40;99.90
20297;DHT22;10307;40.100;18.336;2022-12-18T02:47:38;12.40;99.90
20297;DHT22;10307;40.100;18.336;2022-12-18T02:52:40;12.40;99.90
20297;DHT22;10307;40.100;18.336;2022-12-18T02:55:24;12.40;99.90
20297;DHT22;10307;40.100;18.336;2022-12-18T03:01:23;12.50;99.90
20297;DHT22;10307;40.100;18.336;2022-12-18T03:04:16;12.50;99.90
20297;DHT22;10307;40.100;18.336;2022-12-18T03:06:50;12.50;99.90
20297;DHT22;10307;40.100;18.336;2022-12-18T03:09:36;12.50;99.90
20297;DHT22;10307;40.100;18.336;2022-12-18T03:12:15;12.40;99.90
20297;DHT22;10307;40.100;18.336;2022-12-18T03:17:59;12.30;99.90
20297;DHT22;10307;40.100;18.336;2022-12-18T03:20:32;12.40;99.90
20297;DHT22;10307;40.100;18.336;2022-12-18T03:23:06;12.30;99.90
20297;DHT22;10307;40.100;18.336;2022-12-18T03:25:39;12.40;99.90
20297;DHT22;10307;40.100;18.336;2022-12-18T03:28:09;12.40;99.90
20297;DHT22;10307;40.100;18.336;2022-12-18T03:30:40;12.40;99.90
20297;DHT22;10307;40.100;18.336;2022-12-18T03:33:18;12.50;99.90
20297;DHT22;10307;40.100;18.336;2022-12-18T03:35:50;12.50;99.90
20297;DHT22;10307;40.100;18.336;2022-12-18T03:38:18;12.50;99.90
20297;DHT22;10307;40.100;18.336;2022-12-18T03:41:03;12.50;99.90
20297;DHT22;10307;40.100;18.336;2022-12-18T03:43:43;12.50;99.90
20297;DHT22;10307;40.100;18.336;2022-12-18T03:54:40;12.50;99.90
20297;DHT22;10307;40.100;18.336;2022-12-18T03:57:21;12.50;99.90
20297;DHT22;10307;40.100;18.336;2022-12-18T03:59:56;12.50;99.90
20297;DHT22;10307;40.100;18.336;2022-12-18T04:02:27;12.40;99.90
20297;DHT22;10307;40.100;18.336;2022-12-18T04:04:59;12.50;99.90
20297;DHT22;10307;40.100;18.336;2022-12-18T04:07:27;12.50;99.90
20297;DHT22;10307;40.100;18.336;2022-12-18T04:09:59;12.50;99.90
20297;DHT22;10307;40.100;18.336;2022-12-18T04:12:29;12.50;99.90
20297;DHT22;10307;40.100;18.336;2022-12-18T04:14:56;12.50;99.90
20297;DHT22;10307;40.100;18.336;2022-12-18T04:17:23;12.50;99.90
20297;DHT22;10307;40.100;18.336;2022-12-18T04:19:50;12.50;99.90
20297;DHT22;10307;40.100;18.336;2022-12-18T04:22:16;12.50;99.90
20297;DHT22;10307;40.100;18.336;2022-12-18T04:24:47;12.40;99.90
20297;DHT22;10307;40.100;18.336;2022-12-18T04:27:26;12.50;99.90
20297;DHT22;10307;40.100;18.336;2022-12-18T04:29:52;12.50;99.90
20297;DHT22;10307;40.100;18.336;2022-12-18T04:32:18;12.50;99.90
20297;DHT22;10307;40.100;18.336;2022-12-18T04:34:46;12.50;99.90
20297;DHT22;10307;40.100;18.336;2022-12-18T04:37:13;12.50;99.90
20297;DHT22;10307;40.100;18.336;2022-12-18T04:39:39;12.50;99.90
20297;DHT22;10307;40.100;18.336;2022-12-18T04:42:13;12.50;99.90
20297;DHT22;10307;40.100;18.336;2022-12-18T04:44:39;12.50;99.90
20297;DHT22;10307;40.100;18.336;2022-12-18T04:47:05;12.50;99.90
20297;DHT22;10307;40.100;18.336;2022-12-18T04:49:31;12.50;99.90
20297;DHT22;10307;40.100;18.336;2022-12-18T04:51:58;12.50;99.90
20297;DHT22;10307;40.100;18.336;2022-12-18T04:54:24;12.50;99.90
20297;DHT22;10307;40.100;18.336;2022-12-18T04:56:50;12.50;99.90
20297;DHT22;10307;40.100;18.336;2022-12-18T04:59:16;12.50;99.90
20297;DHT22;10307;40.100;18.336;2022-12-18T05:01:42;12.50;99.90
20297;DHT22;10307;40.100;18.336;2022-12-18T05:04:09;12.50;99.90
20297;DHT22;10307;40.100;18.336;2022-12-18T05:06:35;12.50;99.90
20297;DHT22;10307;40.100;18.336;2022-12-18T05:09:01;12.50;99.90
20297;DHT22;10307;40.100;18.336;2022-12-18T05:11:27;12.50;99.90
20297;DHT22;10307;40.100;18.336;2022-12-18T05:13:57;12.50;99.90
20297;DHT22;10307;40.100;18.336;2022-12-18T05:16:23;12.50;99.90
20297;DHT22;10307;40.100;18.336;2022-12-18T05:18:49;12.50;99.90
20297;DHT22;10307;40.100;18.336;2022-12-18T05:21:15;12.50;99.90
20297;DHT22;10307;40.100;18.336;2022-12-18T05:23:42;12.50;99.90
20297;DHT22;10307;40.100;18.336;2022-12-18T05:26:08;12.40;99.90
20297;DHT22;10307;40.100;18.336;2022-12-18T05:28:39;12.40;99.90
20297;DHT22;10307;40.100;18.336;2022-12-18T05:31:06;12.40;99.90
20297;DHT22;10307;40.100;18.336;2022-12-18T05:33:34;12.40;99.90
20297;DHT22;10307;40.100;18.336;2022-12-18T05:36:01;12.40;99.90
20297;DHT22;10307;40.100;18.336;2022-12-18T05:38:30;12.40;99.90
20297;DHT22;10307;40.100;18.336;2022-12-18T05:40:56;12.50;99.90
20297;DHT22;10307;40.100;18.336;2022-12-18T05:43:24;12.50;99.90
20297;DHT22;10307;40.100;18.336;2022-12-18T05:45:51;12.50;99.90
20297;DHT22;10307;40.100;18.336;2022-12-18T05:48:19;12.50;99.90
20297;DHT22;10307;40.100;18.336;2022-12-18T05:50:47;12.50;99.90
20297;DHT22;10307;40.100;18.336;2022-12-18T05:53:15;12.50;99.90
20297;DHT22;10307;40.100;18.336;2022-12-18T05:55:43;12.50;99.90
20297;DHT22;10307;40.100;18.336;2022-12-18T05:58:11;12.40;99.90
20297;DHT22;10307;40.100;18.336;2022-12-18T06:00:40;12.40;99.90
20297;DHT22;10307;40.100;18.336;2022-12-18T06:03:08;12.50;99.90
20297;DHT22;10307;40.100;18.336;2022-12-18T06:05:43;12.50;99.90
20297;DHT22;10307;40.100;18.336;2022-12-18T06:08:11;12.50;99.90
20297;DHT22;10307;40.100;18.336;2022-12-18T06:10:38;12.50;99.90
20297;DHT22;10307;40.100;18.336;2022-12-18T06:13:05;12.60;99.90
20297;DHT22;10307;40.100;18.336;2022-12-18T06:15:32;12.60;99.90
20297;DHT22;10307;40.100;18.336;2022-12-18T06:18:00;12.60;99.90
20297;DHT22;10307;40.100;18.336;2022-12-18T06:20:26;12.60;99.90
20297;DHT22;10307;40.100;18.336;2022-12-18T06:22:52;12.70;99.90
20297;DHT22;10307;40.100;18.336;2022-12-18T06:25:19;12.70;99.90
20297;DHT22;10307;40.100;18.336;2022-12-18T06:27:47;12.70;99.90
20297;DHT22;10307;40.100;18.336;2022-12-18T06:30:14;12.70;99.90
20297;DHT22;10307;40.100;18.336;2022-12-18T06:32:41;12.80;99.90
20297;DHT22;10307;40.100;18.336;2022-12-18T06:35:07;12.80;99.90
20297;DHT22;10307;40.100;18.336;2022-12-18T06:37:33;12.80;99.90
20297;DHT22;10307;40.100;18.336;2022-12-18T06:40:00;12.80;99.90
20297;DHT22;10307;40.100;18.336;2022-12-18T06:42:26;12.90;99.90
20297;DHT22;10307;40.100;18.336;2022-12-18T06:44:54;12.80;99.90
20297;DHT22;10307;40.100;18.336;2022-12-18T06:47:20;12.90;99.90
20297;DHT22;10307;40.100;18.336;2022-12-18T06:49:47;12.90;99.90
20297;DHT22;10307;40.100;18.336;2022-12-18T06:52:13;12.90;99.90
20297;DHT22;10307;40.100;18.336;2022-12-18T06:54:40;12.90;99.90
20297;DHT22;10307;40.100;18.336;2022-12-18T06:57:06;13.00;99.90
20297;DHT22;10307;40.100;18.336;2022-12-18T06:59:32;13.00;99.90
20297;DHT22;10307;40.100;18.336;2022-12-18T07:01:59;13.10;99.90
20297;DHT22;10307;40.100;18.336;2022-12-18T07:04:32;13.10;99.90
20297;DHT22;10307;40.100;18.336;2022-12-18T07:06:58;13.10;99.90
20297;DHT22;10307;40.100;18.336;2022-12-18T07:09:24;13.10;99.90
20297;DHT22;10307;40.100;18.336;2022-12-18T07:11:50;13.20;99.90
20297;DHT22;10307;40.100;18.336;2022-12-18T07:14:17;13.20;99.90
20297;DHT22;10307;40.100;18.336;2022-12-18T07:16:43;13.20;99.90
20297;DHT22;10307;40.100;18.336;2022-12-18T07:19:09;13.30;99.90
20297;DHT22;10307;40.100;18.336;2022-12-18T07:21:36;13.30;99.90
20297;DHT22;10307;40.100;18.336;2022-12-18T07:24:02;13.40;99.90
20297;DHT22;10307;40.100;18.336;2022-12-18T07:26:28;13.40;99.90
20297;DHT22;10307;40.100;18.336;2022-12-18T07:28:56;13.40;99.90
20297;DHT22;10307;40.100;18.336;2022-12-18T07:31:24;13.40;99.90
20297;DHT22;10307;40.100;18.336;2022-12-18T07:33:51;13.50;99.90
20297;DHT22;10307;40.100;18.336;2022-12-18T07:36:18;13.50;99.90
20297;DHT22;10307;40.100;18.336;2022-12-18T07:38:47;13.50;99.90
20297;DHT22;10307;40.100;18.336;2022-12-18T07:41:14;13.60;99.90
20297;DHT22;10307;40.100;18.336;2022-12-18T07:43:41;13.70;99.90
20297;DHT22;10307;40.100;18.336;2022-12-18T07:46:08;13.80;99.90
20297;DHT22;10307;40.100;18.336;2022-12-18T07:48:35;13.80;99.90
20297;DHT22;10307;40.100;18.336;2022-12-18T07:51:03;13.90;99.90
20297;DHT22;10307;40.100;18.336;2022-12-18T07:53:30;13.80;99.90
20297;DHT22;10307;40.100;18.336;2022-12-18T07:56:02;13.90;99.90
20297;DHT22;10307;40.100;18.336;2022-12-18T07:58:29;13.90;99.90
20297;DHT22;10307;40.100;18.336;2022-12-18T08:01:10;13.90;99.90
20297;DHT22;10307;40.100;18.336;2022-12-18T08:03:38;14.00;99.90
20297;DHT22;10307;40.100;18.336;2022-12-18T08:06:06;14.00;99.90
20297;DHT22;10307;40.100;18.336;2022-12-18T08:08:34;14.00;99.90
20297;DHT22;10307;40.100;18.336;2022-12-18T08:11:00;14.10;99.90
20297;DHT22;10307;40.100;18.336;2022-12-18T08:13:27;14.20;99.90
20297;DHT22;10307;40.100;18.336;2022-12-18T08:16:05;14.20;99.90
20297;DHT22;10307;40.100;18.336;2022-12-18T08:18:33;14.30;99.90
20297;DHT22;10307;40.100;18.336;2022-12-18T08:21:15;14.30;99.90
20297;DHT22;10307;40.100;18.336;2022-12-18T08:23:41;14.30;99.90
20297;DHT22;10307;40.100;18.336;2022-12-18T08:26:08;14.30;99.90
20297;DHT22;10307;40.100;18.336;2022-12-18T08:28:35;14.30;99.90
20297;DHT22;10307;40.100;18.336;2022-12-18T08:31:01;14.40;99.90
20297;DHT22;10307;40.100;18.336;2022-12-18T08:33:28;14.50;99.90
20297;DHT22;10307;40.100;18.336;2022-12-18T08:35:54;14.50;99.90
20297;DHT22;10307;40.100;18.336;2022-12-18T08:38:20;14.60;99.90
20297;DHT22;10307;40.100;18.336;2022-12-18T08:40:48;14.60;99.90
20297;DHT22;10307;40.100;18.336;2022-12-18T08:43:15;14.70;99.90
20297;DHT22;10307;40.100;18.336;2022-12-18T08:45:59;14.70;99.90
20297;DHT22;10307;40.100;18.336;2022-12-18T08:48:26;14.70;99.90
20297;DHT22;10307;40.100;18.336;2022-12-18T08:50:59;14.80;99.90
20297;DHT22;10307;40.100;18.336;2022-12-18T08:53:26;14.80;99.90
20297;DHT22;10307;40.100;18.336;2022-12-18T08:55:53;14.80;99.90
20297;DHT22;10307;40.100;18.336;2022-12-18T08:58:19;14.80;99.90
20297;DHT22;10307;40.100;18.336;2022-12-18T09:00:46;14.90;99.90
20297;DHT22;10307;40.100;18.336;2022-12-18T09:03:18;14.90;99.90
20297;DHT22;10307;40.100;18.336;2022-12-18T09:05:48;15.00;99.90
20297;DHT22;10307;40.100;18.336;2022-12-18T09:08:14;15.00;99.90
20297;DHT22;10307;40.100;18.336;2022-12-18T09:10:48;15.00;99.90
20297;DHT22;10307;40.100;18.336;2022-12-18T09:13:16;15.10;99.90
20297;DHT22;10307;40.100;18.336;2022-12-18T09:15:53;15.10;99.90
20297;DHT22;10307;40.100;18.336;2022-12-18T09:18:21;15.10;99.90
20297;DHT22;10307;40.100;18.336;2022-12-18T09:20:48;15.20;99.90
20297;DHT22;10307;40.100;18.336;2022-12-18T09:23:16;15.20;99.90
20297;DHT22;10307;40.100;18.336;2022-12-18T09:25:42;15.30;99.90
20297;DHT22;10307;40.100;18.336;2022-12-18T09:28:17;15.40;99.90
20297;DHT22;10307;40.100;18.336;2022-12-18T09:30:46;15.50;99.90
20297;DHT22;10307;40.100;18.336;2022-12-18T09:33:13;15.50;99.90
20297;DHT22;10307;40.100;18.336;2022-12-18T09:35:40;15.60;99.90
20297;DHT22;10307;40.100;18.336;2022-12-18T09:38:14;15.60;99.90
20297;DHT22;10307;40.100;18.336;2022-12-18T09:40:51;15.70;99.90
20297;DHT22;10307;40.100;18.336;2022-12-18T09:43:35;15.70;99.90
20297;DHT22;10307;40.100;18.336;2022-12-18T09:46:06;15.80;99.90
20297;DHT22;10307;40.100;18.336;2022-12-18T09:48:42;15.70;99.90
20297;DHT22;10307;40.100;18.336;2022-12-18T09:51:23;15.70;99.90
20297;DHT22;10307;40.100;18.336;2022-12-18T09:53:55;15.70;99.90
20297;DHT22;10307;40.100;18.336;2022-12-18T09:56:24;15.70;99.90
20297;DHT22;10307;40.100;18.336;2022-12-18T09:59:02;15.70;99.90
20297;DHT22;10307;40.100;18.336;2022-12-18T10:01:31;15.80;99.90
20297;DHT22;10307;40.100;18.336;2022-12-18T10:03:57;15.80;99.90
20297;DHT22;10307;40.100;18.336;2022-12-18T10:06:32;15.80;99.90
20297;DHT22;10307;40.100;18.336;2022-12-18T10:09:33;15.90;99.90
20297;DHT22;10307;40.100;18.336;2022-12-18T10:12:12;15.90;99.90
20297;DHT22;10307;40.100;18.336;2022-12-18T10:14:58;16.00;99.90
20297;DHT22;10307;40.100;18.336;2022-12-18T10:23:14;16.10;99.90
20297;DHT22;10307;40.100;18.336;2022-12-18T10:26:03;16.20;99.90
20297;DHT22;10307;40.100;18.336;2022-12-18T10:28:34;16.20;99.90
20297;DHT22;10307;40.100;18.336;2022-12-18T10:31:01;16.10;99.90
20297;DHT22;10307;40.100;18.336;2022-12-18T10:33:33;16.10;99.90
20297;DHT22;10307;40.100;18.336;2022-12-18T10:35:59;16.10;99.90
20297;DHT22;10307;40.100;18.336;2022-12-18T10:38:28;16.10;99.90
20297;DHT22;10307;40.100;18.336;2022-12-18T10:41:00;16.10;99.90
20297;DHT22;10307;40.100;18.336;2022-12-18T10:43:29;16.10;99.90
20297;DHT22;10307;40.100;18.336;2022-12-18T10:46:00;16.20;99.90
20297;DHT22;10307;40.100;18.336;2022-12-18T10:48:27;16.20;99.90
20297;DHT22;10307;40.100;18.336;2022-12-18T10:50:54;16.30;99.90
20297;DHT22;10307;40.100;18.336;2022-12-18T10:53:27;16.30;99.90
20297;DHT22;10307;40.100;18.336;2022-12-18T10:55:55;16.30;99.90
20297;DHT22;10307;40.100;18.336;2022-12-18T10:58:26;16.20;99.90
20297;DHT22;10307;40.100;18.336;2022-12-18T11:01:12;16.20;99.90
20297;DHT22;10307;40.100;18.336;2022-12-18T11:03:42;16.20;99.90
20297;DHT22;10307;40.100;18.336;2022-12-18T11:06:12;16.20;99.90
20297;DHT22;10307;40.100;18.336;2022-12-18T11:08:39;16.30;99.90
20297;DHT22;10307;40.100;18.336;2022-12-18T11:11:20;16.30;99.90
20297;DHT22;10307;40.100;18.336;2022-12-18T11:16:37;16.30;99.90
20297;DHT22;10307;40.100;18.336;2022-12-18T11:21:50;16.20;99.90
20297;DHT22;10307;40.100;18.336;2022-12-18T11:26:49;16.10;99.90
20297;DHT22;10307;40.100;18.336;2022-12-18T11:29:26;16.20;99.90
20297;DHT22;10307;40.100;18.336;2022-12-18T11:34:48;16.40;99.90
20297;DHT22;10307;40.100;18.336;2022-12-18T11:37:17;16.40;99.90
20297;DHT22;10307;40.100;18.336;2022-12-18T11:40:02;16.50;99.90
20297;DHT22;10307;40.100;18.336;2022-12-18T11:50:41;16.50;99.90
20297;DHT22;10307;40.100;18.336;2022-12-18T11:53:11;16.50;99.90
20297;DHT22;10307;40.100;18.336;2022-12-18T11:56:04;16.40;99.90
20297;DHT22;10307;40.100;18.336;2022-12-18T12:01:36;16.50;99.90
20297;DHT22;10307;40.100;18.336;2022-12-18T12:18:55;16.10;99.90
20297;DHT22;10307;40.100;18.336;2022-12-18T12:21:45;16.10;99.90
20297;DHT22;10307;40.100;18.336;2022-12-18T12:24:39;16.20;99.90
20297;DHT22;10307;40.100;18.336;2022-12-18T12:27:51;16.20;99.90
20297;DHT22;10307;40.100;18.336;2022-12-18T12:30:39;16.10;99.90
20297;DHT22;10307;40.100;18.336;2022-12-18T12:36:14;16.20;99.90
20297;DHT22;10307;40.100;18.336;2022-12-18T12:38:47;16.40;99.90
20297;DHT22;10307;40.100;18.336;2022-12-18T12:41:19;16.40;99.90
20297;DHT22;10307;40.100;18.336;2022-12-18T12:44:08;16.40;99.90
20297;DHT22;10307;40.100;18.336;2022-12-18T12:46:41;16.30;99.90
20297;DHT22;10307;40.100;18.336;2022-12-18T12:49:17;16.20;99.90
20297;DHT22;10307;40.100;18.336;2022-12-18T12:52:12;16.10;99.90
20297;DHT22;10307;40.100;18.336;2022-12-18T12:54:40;16.00;99.90
20297;DHT22;10307;40.100;18.336;2022-12-18T12:57:26;15.90;99.90
20297;DHT22;10307;40.100;18.336;2022-12-18T13:00:10;15.90;99.90
20297;DHT22;10307;40.100;18.336;2022-12-18T13:03:03;15.90;99.90
20297;DHT22;10307;40.100;18.336;2022-12-18T13:05:45;15.90;99.90
20297;DHT22;10307;40.100;18.336;2022-12-18T13:11:51;15.80;99.90
20297;DHT22;10307;40.100;18.336;2022-12-18T13:14:37;15.80;99.90
20297;DHT22;10307;40.100;18.336;2022-12-18T13:19:51;15.80;99.90
20297;DHT22;10307;40.100;18.336;2022-12-18T13:22:29;15.80;99.90
20297;DHT22;10307;40.100;18.336;2022-12-18T13:24:56;15.80;99.90
20297;DHT22;10307;40.100;18.336;2022-12-18T13:41:02;15.60;99.90
20297;DHT22;10307;40.100;18.336;2022-12-18T13:43:34;15.60;99.90
20297;DHT22;10307;40.100;18.336;2022-12-18T13:46:03;15.50;99.90
20297;DHT22;10307;40.100;18.336;2022-12-18T13:48:33;15.50;99.90
20297;DHT22;10307;40.100;18.336;2022-12-18T13:51:08;15.50;99.90
20297;DHT22;10307;40.100;18.336;2022-12-18T13:53:48;15.50;99.90
20297;DHT22;10307;40.100;18.336;2022-12-18T13:56:22;15.50;99.90
20297;DHT22;10307;40.100;18.336;2022-12-18T14:01:46;15.40;99.90
20297;DHT22;10307;40.100;18.336;2022-12-18T14:04:21;15.30;99.90
20297;DHT22;10307;40.100;18.336;2022-12-18T14:06:55;15.30;99.90
20297;DHT22;10307;40.100;18.336;2022-12-18T14:09:27;15.20;99.90
20297;DHT22;10307;40.100;18.336;2022-12-18T14:11:55;15.20;99.90
20297;DHT22;10307;40.100;18.336;2022-12-18T14:14:45;15.20;99.90
20297;DHT22;10307;40.100;18.336;2022-12-18T14:17:13;15.20;99.90
20297;DHT22;10307;40.100;18.336;2022-12-18T14:19:48;15.20;99.90
20297;DHT22;10307;40.100;18.336;2022-12-18T14:22:21;15.20;99.90
20297;DHT22;10307;40.100;18.336;2022-12-18T14:25:28;15.20;99.90
20297;DHT22;10307;40.100;18.336;2022-12-18T14:30:39;15.20;99.90
20297;DHT22;10307;40.100;18.336;2022-12-18T14:33:13;15.20;99.90
20297;DHT22;10307;40.100;18.336;2022-12-18T14:35:59;15.10;99.90
20297;DHT22;10307;40.100;18.336;2022-12-18T14:38:29;15.10;99.90
20297;DHT22;10307;40.100;18.336;2022-12-18T14:41:13;15.10;99.90
20297;DHT22;10307;40.100;18.336;2022-12-18T14:43:42;15.10;99.90
20297;DHT22;10307;40.100;18.336;2022-12-18T14:46:44;15.10;99.90
20297;DHT22;10307;40.100;18.336;2022-12-18T14:49:31;15.10;99.90
20297;DHT22;10307;40.100;18.336;2022-12-18T14:52:06;15.10;99.90
20297;DHT22;10307;40.100;18.336;2022-12-18T14:54:34;15.10;99.90
20297;DHT22;10307;40.100;18.336;2022-12-18T14:57:25;15.00;99.90
20297;DHT22;10307;40.100;18.336;2022-12-18T14:59:52;15.00;99.90
20297;DHT22;10307;40.100;18.336;2022-12-18T15:02:22;15.00;99.90
20297;DHT22;10307;40.100;18.336;2022-12-18T15:05:45;14.90;99.90
20297;DHT22;10307;40.100;18.336;2022-12-18T15:07:48;14.90;99.90
20297;DHT22;10307;40.100;18.336;2022-12-18T15:10:29;14.90;99.90
20297;DHT22;10307;40.100;18.336;2022-12-18T15:24:13;14.70;99.90
20297;DHT22;10307;40.100;18.336;2022-12-18T15:26:10;14.70;99.90
20297;DHT22;10307;40.100;18.336;2022-12-18T15:34:05;14.60;99.90
20297;DHT22;10307;40.100;18.336;2022-12-18T15:36:35;14.60;99.90
20297;DHT22;10307;40.100;18.336;2022-12-18T15:39:04;14.60;99.90
20297;DHT22;10307;40.100;18.336;2022-12-18T15:41:32;14.60;99.90
20297;DHT22;10307;40.100;18.336;2022-12-18T15:43:59;14.50;99.90
20297;DHT22;10307;40.100;18.336;2022-12-18T15:46:26;14.50;99.90
20297;DHT22;10307;40.100;18.336;2022-12-18T15:48:55;14.50;99.90
20297;DHT22;10307;40.100;18.336;2022-12-18T15:51:35;14.50;99.90
20297;DHT22;10307;40.100;18.336;2022-12-18T15:54:04;14.50;99.90
20297;DHT22;10307;40.100;18.336;2022-12-18T15:56:32;14.50;99.90
20297;DHT22;10307;40.100;18.336;2022-12-18T15:59:19;14.40;99.90
20297;DHT22;10307;40.100;18.336;2022-12-18T16:01:47;14.40;99.90
20297;DHT22;10307;40.100;18.336;2022-12-18T16:04:17;14.40;99.90
20297;DHT22;10307;40.100;18.336;2022-12-18T16:06:45;14.40;99.90
20297;DHT22;10307;40.100;18.336;2022-12-18T16:09:11;14.40;99.90
20297;DHT22;10307;40.100;18.336;2022-12-18T16:11:40;14.30;99.90
20297;DHT22;10307;40.100;18.336;2022-12-18T16:16:44;14.30;99.90
20297;DHT22;10307;40.100;18.336;2022-12-18T16:19:11;14.30;99.90
20297;DHT22;10307;40.100;18.336;2022-12-18T16:21:38;14.30;99.90
20297;DHT22;10307;40.100;18.336;2022-12-18T16:24:05;14.30;99.90
20297;DHT22;10307;40.100;18.336;2022-12-18T16:26:31;14.30;99.90
20297;DHT22;10307;40.100;18.336;2022-12-18T16:28:57;14.30;99.90
20297;DHT22;10307;40.100;18.336;2022-12-18T16:31:24;14.20;99.90
20297;DHT22;10307;40.100;18.336;2022-12-18T16:34:13;14.30;99.90
20297;DHT22;10307;40.100;18.336;2022-12-18T16:36:41;14.20;99.90
20297;DHT22;10307;40.100;18.336;2022-12-18T16:39:07;14.20;99.90
20297;DHT22;10307;40.100;18.336;2022-12-18T16:41:34;14.20;99.90
20297;DHT22;10307;40.100;18.336;2022-12-18T16:44:01;14.20;99.90
20297;DHT22;10307;40.100;18.336;2022-12-18T16:46:27;14.20;99.90
20297;DHT22;10307;40.100;18.336;2022-12-18T16:48:58;14.20;99.90
20297;DHT22;10307;40.100;18.336;2022-12-18T16:51:27;14.20;99.90
20297;DHT22;10307;40.100;18.336;2022-12-18T16:53:54;14.20;99.90
20297;DHT22;10307;40.100;18.336;2022-12-18T16:56:21;14.20;99.90
20297;DHT22;10307;40.100;18.336;2022-12-18T16:58:52;14.20;99.90
20297;DHT22;10307;40.100;18.336;2022-12-18T17:01:19;14.10;99.90
20297;DHT22;10307;40.100;18.336;2022-12-18T17:03:54;14.10;99.90
20297;DHT22;10307;40.100;18.336;2022-12-18T17:06:24;14.10;99.90
20297;DHT22;10307;40.100;18.336;2022-12-18T17:08:58;14.10;99.90
20297;DHT22;10307;40.100;18.336;2022-12-18T17:11:26;14.10;99.90
20297;DHT22;10307;40.100;18.336;2022-12-18T17:13:52;14.10;99.90
20297;DHT22;10307;40.100;18.336;2022-12-18T17:16:20;14.10;99.90
20297;DHT22;10307;40.100;18.336;2022-12-18T17:18:48;14.00;99.90
20297;DHT22;10307;40.100;18.336;2022-12-18T17:21:15;14.00;99.90
20297;DHT22;10307;40.100;18.336;2022-12-18T17:23:42;14.00;99.90
20297;DHT22;10307;40.100;18.336;2022-12-18T17:26:11;14.00;99.90
20297;DHT22;10307;40.100;18.336;2022-12-18T17:28:38;14.00;99.90
20297;DHT22;10307;40.100;18.336;2022-12-18T17:31:21;13.90;99.90
20297;DHT22;10307;40.100;18.336;2022-12-18T17:33:48;13.90;99.90
20297;DHT22;10307;40.100;18.336;2022-12-18T17:36:15;13.90;99.90
20297;DHT22;10307;40.100;18.336;2022-12-18T17:38:43;13.90;99.90
20297;DHT22;10307;40.100;18.336;2022-12-18T17:41:15;13.90;99.90